Time;durP1;ratioP1;P1;durP2;ratioP2;P2;SDS_P1;SDS_P2;PMS_P1;PMS_P2;Temp;Humidity;BMP_temperature;BMP_pressure;BME280_temperature;BME280_humidity;BME280_pressure;Samples;Min_cycle;Max_cycle;Signal;HPM_P1;HPM_P2
2021/12/07 00:01:39;;;;;;;7.72;1.48;;;;;;;15.99;72.27;100424.50;5047352;28;20128;-66
2021/12/07 00:04:08;;;;;;;8.02;1.67;;;;;;;16.01;71.68;100412.06;5048945;28;20044;-65
2021/12/07 00:06:36;;;;;;;7.28;1.20;;;;;;;15.99;73.51;100435.13;5052467;28;20103;-65
2021/12/07 00:09:05;;;;;;;12.55;2.20;;;;;;;15.99;74.41;100434.25;5047792;28;20615;-66
2021/12/07 00:11:33;;;;;;;10.80;1.63;;;;;;;15.97;75.11;100450.25;5049217;28;20075;-65
2021/12/07 00:14:11;;;;;;;10.90;2.72;;;;;;;15.99;75.56;100428.94;5049632;28;20405;-66
2021/12/07 00:16:38;;;;;;;13.05;1.80;;;;;;;15.92;75.05;100438.78;5058167;28;20548;-66
2021/12/07 00:19:06;;;;;;;14.45;2.55;;;;;;;15.90;74.69;100430.78;5054761;28;20048;-66
2021/12/07 00:21:34;;;;;;;15.57;3.03;;;;;;;15.92;74.91;100434.31;5052319;28;20580;-66
2021/12/07 00:24:02;;;;;;;9.50;1.50;;;;;;;15.88;74.63;100429.91;5048568;28;20049;-65
2021/12/07 00:26:29;;;;;;;12.35;2.83;;;;;;;15.89;75.03;100418.38;5053106;28;20625;-66
2021/12/07 00:28:59;;;;;;;13.13;2.03;;;;;;;15.95;75.73;100430.72;5056983;28;20110;-65
2021/12/07 00:31:34;;;;;;;19.60;2.28;;;;;;;15.97;76.23;100420.06;5047668;28;20055;-66
2021/12/07 00:34:12;;;;;;;22.35;3.00;;;;;;;15.97;76.64;100418.28;5047814;28;20120;-66
2021/12/07 00:36:44;;;;;;;15.30;3.28;;;;;;;15.99;76.73;100410.28;5047711;28;20045;-66
2021/12/07 00:39:13;;;;;;;8.73;2.83;;;;;;;15.95;77.02;100397.00;5049716;28;20045;-66
2021/12/07 00:41:41;;;;;;;16.50;2.85;;;;;;;15.87;76.96;100409.56;5049264;28;20392;-66
2021/12/07 00:44:10;;;;;;;15.52;2.58;;;;;;;15.92;76.62;100385.53;5049090;28;20059;-67
2021/12/07 00:46:40;;;;;;;13.05;1.95;;;;;;;16.03;74.58;100382.72;5047843;28;20094;-66
2021/12/07 00:49:08;;;;;;;5.60;1.90;;;;;;;16.01;73.31;100372.13;5049466;28;20033;-66
2021/12/07 00:51:36;;;;;;;13.18;2.05;;;;;;;16.02;73.21;100387.16;5049164;28;20045;-66
2021/12/07 00:54:23;;;;;;;9.57;2.20;;;;;;;15.99;72.46;100367.69;5059097;28;20053;-66
2021/12/07 00:56:52;;;;;;;13.05;2.00;;;;;;;15.98;71.35;100352.63;5049689;28;20128;-66
2021/12/07 00:59:20;;;;;;;14.10;2.75;;;;;;;15.98;70.96;100347.28;5049315;28;20392;-66
2021/12/07 01:01:50;;;;;;;9.65;1.30;;;;;;;15.98;69.13;100342.84;5101553;28;20540;-66
2021/12/07 01:04:17;;;;;;;15.75;2.25;;;;;;;15.97;69.31;100318.91;5069319;28;20045;-65
2021/12/07 01:06:58;;;;;;;15.82;3.05;;;;;;;15.99;67.79;100314.44;5059041;28;20432;-66
2021/12/07 01:09:31;;;;;;;12.85;2.13;;;;;;;15.97;67.75;100319.78;5049263;28;20041;-65
2021/12/07 01:25:52;;;;;;;16.38;1.90;;;;;;;15.98;65.53;100318.00;5063811;28;20055;-66
2021/12/07 01:28:25;;;;;;;14.27;1.67;;;;;;;15.97;65.27;100330.44;5047531;28;20041;-65
2021/12/07 01:30:58;;;;;;;19.25;2.45;;;;;;;16.03;66.61;100326.81;5051216;28;20060;-66
2021/12/07 01:33:52;;;;;;;20.17;3.05;;;;;;;16.00;66.97;100318.88;5064997;28;20453;-66
2021/12/07 01:45:06;;;;;;;12.70;2.20;;;;;;;16.05;67.83;100304.59;5086552;28;20059;-66
2021/12/07 01:47:45;;;;;;;21.20;2.28;;;;;;;16.07;68.11;100299.25;5099356;28;20051;-66
2021/12/07 02:01:17;;;;;;;13.65;2.60;;;;;;;16.12;67.29;100270.75;5049847;28;20132;-66
2021/12/07 02:03:44;;;;;;;15.57;2.67;;;;;;;16.23;67.36;100276.81;5052661;28;20037;-65
2021/12/07 02:06:14;;;;;;;17.88;2.45;;;;;;;16.21;67.05;100249.34;5051358;28;20053;-66
2021/12/07 02:08:44;;;;;;;10.40;1.90;;;;;;;16.16;67.08;100260.03;5060564;28;20079;-66
2021/12/07 02:11:12;;;;;;;10.60;2.63;;;;;;;16.12;66.88;100262.78;5050687;28;20040;-66
2021/12/07 02:16:29;;;;;;;9.25;1.55;;;;;;;16.03;67.16;100249.59;5050663;28;20048;-65
2021/12/07 02:18:58;;;;;;;15.65;2.00;;;;;;;16.02;67.19;100245.16;5035126;28;20095;-66
2021/12/07 02:21:28;;;;;;;12.85;2.42;;;;;;;16.02;66.64;100239.84;5051987;28;20045;-65
2021/12/07 02:24:06;;;;;;;11.57;2.38;;;;;;;16.05;66.52;100232.69;5070730;28;20036;-66
2021/12/07 02:26:34;;;;;;;15.77;1.98;;;;;;;16.04;66.84;100230.06;5071814;28;20048;-66
2021/12/07 02:29:03;;;;;;;13.15;2.47;;;;;;;16.03;66.90;100230.94;5070228;28;20480;-65
2021/12/07 02:31:31;;;;;;;15.73;2.22;;;;;;;16.02;67.37;100215.88;5071890;28;20485;-65
2021/12/07 02:33:59;;;;;;;14.32;2.70;;;;;;;16.05;67.72;100215.84;5066458;28;20090;-65
2021/12/07 02:36:28;;;;;;;9.70;1.33;;;;;;;16.08;67.18;100215.81;5058498;28;20499;-65
2021/12/07 02:38:57;;;;;;;15.18;2.58;;;;;;;16.12;67.59;100225.50;5086558;28;20044;-66
2021/12/07 02:41:25;;;;;;;16.95;4.18;;;;;;;15.87;70.45;100232.97;5084111;28;20395;-64
2021/12/07 02:43:53;;;;;;;13.43;2.33;;;;;;;15.35;73.24;100232.78;5070496;28;20036;-64
2021/12/07 02:46:20;;;;;;;13.13;3.17;;;;;;;15.03;75.26;100238.47;5071543;28;20037;-64
2021/12/07 02:48:52;;;;;;;14.93;3.00;;;;;;;14.90;75.92;100229.72;5088071;28;20048;-63
2021/12/07 02:51:21;;;;;;;22.10;4.10;;;;;;;14.82;75.38;100202.38;5069135;28;20127;-63
2021/12/07 02:53:50;;;;;;;16.83;2.72;;;;;;;14.75;75.26;100220.16;5075940;28;20039;-64
2021/12/07 02:56:18;;;;;;;16.30;3.00;;;;;;;14.70;75.67;100208.66;5082171;28;20040;-64
2021/12/07 02:58:45;;;;;;;19.30;2.83;;;;;;;14.77;76.01;100224.56;5084500;28;20136;-65
2021/12/07 03:01:22;;;;;;;13.38;2.25;;;;;;;14.82;76.01;100217.44;5089245;28;20032;-64
2021/12/07 03:03:59;;;;;;;17.25;3.03;;;;;;;14.81;76.17;100203.25;5087659;28;20040;-65
2021/12/07 03:06:36;;;;;;;18.55;3.38;;;;;;;14.85;74.35;100215.59;5071806;28;20044;-64
2021/12/07 03:28:36;;;;;;;11.05;2.42;;;;;;;15.13;69.11;100165.66;4994636;28;20044;-66
2021/12/07 03:31:05;;;;;;;18.60;2.25;;;;;;;15.14;69.73;100162.13;5062046;28;20079;-67
2021/12/07 03:33:34;;;;;;;8.35;1.25;;;;;;;15.12;69.34;100156.81;5049017;28;20037;-66
2021/12/07 03:36:02;;;;;;;4.53;1.35;;;;;;;15.11;69.19;100146.19;5050531;28;20128;-66
2021/12/07 03:38:30;;;;;;;16.83;2.58;;;;;;;15.08;68.45;100139.16;5050632;28;20488;-66
2021/12/07 03:41:00;;;;;;;15.00;2.50;;;;;;;15.16;68.66;100131.94;5052569;28;20047;-65
2021/12/07 03:43:28;;;;;;;13.60;2.50;;;;;;;15.23;68.23;100127.41;5050575;28;20437;-65
2021/12/07 03:45:57;;;;;;;13.88;2.38;;;;;;;15.24;68.75;100120.31;5080873;28;20057;-66
2021/12/07 03:48:25;;;;;;;15.25;3.15;;;;;;;15.26;67.67;100121.19;5049280;28;20041;-65
2021/12/07 03:50:53;;;;;;;10.50;1.85;;;;;;;15.29;67.24;100118.50;5049131;28;20675;-66
2021/12/07 03:53:21;;;;;;;11.35;2.08;;;;;;;15.29;66.42;100094.56;5048806;28;20540;-65
2021/12/07 03:55:49;;;;;;;12.18;2.50;;;;;;;15.29;65.39;100111.41;5053363;28;20032;-66
2021/12/07 03:58:18;;;;;;;12.40;2.50;;;;;;;15.33;64.32;100096.28;5068592;28;20082;-65
2021/12/07 04:00:48;;;;;;;12.65;1.80;;;;;;;15.33;63.71;100101.59;5060760;28;20047;-65
2021/12/07 04:03:17;;;;;;;11.18;2.33;;;;;;;15.34;62.61;100087.41;5050968;28;20462;-65
2021/12/07 04:05:48;;;;;;;10.93;2.25;;;;;;;15.35;62.68;100095.34;5050096;28;20120;-65
2021/12/07 04:08:22;;;;;;;11.43;2.00;;;;;;;15.37;63.27;100082.00;5048691;28;20045;-65
2021/12/07 04:10:51;;;;;;;14.13;2.20;;;;;;;15.42;63.47;100098.81;5048592;28;20049;-65
2021/12/07 04:13:21;;;;;;;16.33;2.47;;;;;;;15.47;63.21;100099.59;5082325;28;20473;-65
2021/12/07 04:15:49;;;;;;;19.20;2.92;;;;;;;15.56;63.13;100099.47;5053033;28;20056;-65
2021/12/07 04:18:17;;;;;;;16.02;3.95;;;;;;;15.64;63.11;100097.59;5069795;28;20131;-65
2021/12/07 04:20:46;;;;;;;12.32;2.40;;;;;;;15.66;63.36;100092.25;5035956;28;20037;-65
2021/12/07 04:23:14;;;;;;;15.27;1.77;;;;;;;15.66;63.68;100094.91;5047918;28;20057;-65
2021/12/07 04:25:42;;;;;;;12.55;2.13;;;;;;;15.66;64.50;100076.28;5048189;28;20647;-66
2021/12/07 04:28:09;;;;;;;9.68;1.48;;;;;;;15.69;64.55;100094.84;5040628;28;20377;-65
2021/12/07 04:30:41;;;;;;;14.55;2.05;;;;;;;15.73;64.43;100076.16;5063349;28;20037;-65
2021/12/07 04:33:11;;;;;;;16.08;2.20;;;;;;;15.80;64.61;100093.78;5054594;28;20685;-65
2021/12/07 04:35:41;;;;;;;18.30;2.65;;;;;;;15.87;63.90;100090.13;5053643;28;20116;-66
2021/12/07 04:38:08;;;;;;;18.80;3.65;;;;;;;15.89;64.06;100096.28;5049910;28;20049;-66
2021/12/07 04:40:37;;;;;;;20.20;2.97;;;;;;;15.77;62.67;100114.25;5067826;28;20502;-66
2021/12/07 04:43:07;;;;;;;12.77;2.10;;;;;;;15.58;62.58;100131.38;5049412;28;20045;-66
2021/12/07 04:45:48;;;;;;;10.57;1.63;;;;;;;15.38;63.54;100155.59;5066716;28;20040;-66
2021/12/07 04:59:19;;;;;;;13.40;1.92;;;;;;;13.85;76.32;100128.88;5060252;28;20047;-65
2021/12/07 05:01:47;;;;;;;15.63;2.17;;;;;;;13.84;76.74;100105.94;5049000;28;20037;-64
2021/12/07 05:04:21;;;;;;;13.07;2.60;;;;;;;13.82;77.06;100094.44;5055552;28;20408;-64
2021/12/07 05:06:52;;;;;;;19.45;2.95;;;;;;;13.75;77.26;100088.31;5068120;28;20496;-64
2021/12/07 05:14:46;;;;;;;17.00;3.08;;;;;;;13.56;80.28;100147.69;5069874;28;20496;-66
2021/12/07 05:17:24;;;;;;;25.33;3.92;;;;;;;13.45;81.91;100150.41;5069038;28;20037;-66
2021/12/07 05:39:07;;;;;;;21.00;3.17;;;;;;;13.48;83.43;100102.66;5054733;28;20409;-64
2021/12/07 05:41:35;;;;;;;14.63;2.60;;;;;;;13.56;83.49;100111.44;5047248;28;20071;-64
2021/12/07 05:44:03;;;;;;;14.73;2.85;;;;;;;13.64;83.54;100220.13;5047297;28;20061;-63
2021/12/07 05:46:31;;;;;;;16.70;2.95;;;;;;;13.56;82.99;100217.50;5050306;28;20041;-66
2021/12/07 05:48:59;;;;;;;6.82;1.73;;;;;;;13.01;82.25;100234.47;5047273;28;20857;-65
2021/12/07 05:51:28;;;;;;;24.95;9.30;;;;;;;12.67;82.56;100254.84;5037532;28;20121;-65
2021/12/07 05:53:55;;;;;;;7.38;1.60;;;;;;;12.56;83.08;100273.41;5036533;28;20040;-64
2021/12/07 05:56:23;;;;;;;6.00;1.40;;;;;;;12.53;83.94;100317.56;5069769;28;20480;-65
2021/12/07 05:58:51;;;;;;;14.00;1.90;;;;;;;12.42;84.28;100341.34;5071836;28;20064;-66
2021/12/07 06:01:18;;;;;;;10.20;1.50;;;;;;;12.28;84.49;100324.56;5071053;28;20717;-66
2021/12/07 06:03:46;;;;;;;8.55;1.67;;;;;;;12.13;84.61;100321.91;5058147;28;20051;-67
2021/12/07 06:06:14;;;;;;;11.88;1.85;;;;;;;11.96;84.70;100298.03;5066146;28;20041;-67
2021/12/07 06:08:44;;;;;;;9.63;1.60;;;;;;;11.93;85.17;100285.72;5069541;28;20040;-66
2021/12/07 06:11:11;;;;;;;14.15;2.30;;;;;;;11.92;85.42;100265.44;5075318;28;20101;-66
2021/12/07 06:13:39;;;;;;;9.07;1.38;;;;;;;11.78;85.47;100258.34;5081339;28;20043;-66
2021/12/07 06:16:08;;;;;;;17.88;3.08;;;;;;;11.83;85.93;100283.91;5084627;28;20126;-66
2021/12/07 06:18:37;;;;;;;17.02;2.60;;;;;;;11.93;86.09;100317.47;5092170;28;20033;-67
2021/12/07 06:21:06;;;;;;;21.67;2.50;;;;;;;11.93;85.90;100284.84;5083593;28;20045;-70
2021/12/07 06:23:33;;;;;;;20.88;3.03;;;;;;;11.86;86.13;100256.59;5070512;28;20544;-66
2021/12/07 06:26:04;;;;;;;16.17;2.78;;;;;;;11.93;86.44;100263.66;5070212;28;20555;-67
2021/12/07 06:28:32;;;;;;;16.98;3.10;;;;;;;11.94;86.68;100223.13;5103624;28;20416;-67
2021/12/07 06:30:59;;;;;;;19.55;2.85;;;;;;;11.88;86.88;100217.81;5072215;28;20066;-67
2021/12/07 06:33:28;;;;;;;21.67;2.85;;;;;;;11.87;87.22;100218.69;5071292;28;20136;-67
2021/12/07 06:35:59;;;;;;;28.40;3.45;;;;;;;11.91;87.45;100233.69;5091602;28;20055;-68
2021/12/07 06:38:29;;;;;;;27.92;5.80;;;;;;;11.87;87.33;100203.72;5079901;28;20036;-67
2021/12/07 06:40:57;;;;;;;13.43;4.20;;;;;;;11.86;87.55;100183.44;5084028;28;20048;-66
2021/12/07 06:43:26;;;;;;;17.88;5.25;;;;;;;11.85;87.51;100181.66;5076300;28;20048;-66
2021/12/07 07:19:03;;;;;;;62.63;37.65;;;;;;;12.68;87.71;100130.41;4870864;28;20064;-66
2021/12/07 07:21:30;;;;;;;28.85;9.05;;;;;;;12.75;88.24;100221.31;5069833;28;20044;-68
2021/12/07 07:23:58;;;;;;;14.00;2.67;;;;;;;12.35;87.25;100192.25;5070333;28;20090;-69
2021/12/07 07:26:26;;;;;;;18.33;3.17;;;;;;;11.92;86.29;100194.03;5074345;28;20079;-67
2021/12/07 07:28:53;;;;;;;14.20;4.03;;;;;;;11.71;86.26;100177.19;5072026;28;20040;-67
2021/12/07 07:31:21;;;;;;;16.45;3.20;;;;;;;11.62;86.29;100169.28;5082457;28;20040;-66
2021/12/07 07:33:49;;;;;;;6.68;1.63;;;;;;;11.54;86.07;100167.50;5057308;28;20127;-65
2021/12/07 07:36:18;;;;;;;19.25;2.75;;;;;;;11.57;86.20;100121.66;5071783;28;20033;-66
2021/12/07 07:38:46;;;;;;;15.80;2.50;;;;;;;11.66;86.18;100111.13;5058373;28;20051;-66
2021/12/07 07:41:14;;;;;;;15.50;3.17;;;;;;;11.87;86.61;100094.41;5069837;28;20041;-66
2021/12/07 07:43:42;;;;;;;12.93;3.67;;;;;;;12.02;86.81;100080.25;5069311;28;20036;-65
2021/12/07 07:46:17;;;;;;;53.05;36.17;;;;;;;12.00;86.87;100064.41;5067742;28;20496;-65
2021/12/07 07:48:46;;;;;;;33.58;22.58;;;;;;;12.13;87.15;100041.47;5068523;28;20040;-66
2021/12/07 07:51:18;;;;;;;35.58;24.15;;;;;;;12.44;87.70;100037.84;5068993;28;20040;-65
2021/12/07 07:53:48;;;;;;;46.97;33.20;;;;;;;12.65;88.23;100020.97;5068251;28;20047;-65
2021/12/07 07:56:17;;;;;;;35.05;25.00;;;;;;;12.82;88.88;100000.56;5074787;28;20075;-65
2021/12/07 07:58:45;;;;;;;26.70;12.32;;;;;;;12.86;89.22;99991.75;5083525;28;20396;-65
2021/12/07 08:01:13;;;;;;;16.80;6.80;;;;;;;13.02;89.76;99976.59;5080475;28;20040;-64
2021/12/07 08:03:41;;;;;;;20.83;5.05;;;;;;;13.27;90.35;99966.72;5066960;28;20040;-65
2021/12/07 08:06:08;;;;;;;17.33;4.38;;;;;;;13.45;90.41;99964.81;5069338;28;20431;-64
2021/12/07 08:08:38;;;;;;;17.65;4.07;;;;;;;13.68;90.33;99961.06;5072181;28;20577;-65
2021/12/07 08:11:05;;;;;;;33.13;12.43;;;;;;;13.89;90.66;99947.56;5068739;28;20132;-65
2021/12/07 08:13:33;;;;;;;43.90;13.48;;;;;;;14.12;90.22;99958.78;5068706;28;20059;-64
2021/12/07 08:16:01;;;;;;;28.35;5.00;;;;;;;14.18;89.48;99977.28;5081412;28;20032;-65
2021/12/07 08:18:29;;;;;;;30.75;8.52;;;;;;;14.17;89.07;99972.91;5078780;28;20040;-65
2021/12/07 08:20:57;;;;;;;45.95;7.53;;;;;;;14.24;89.07;99963.94;5067616;28;20040;-65
2021/12/07 08:23:24;;;;;;;33.03;6.63;;;;;;;14.40;87.86;99974.41;5069331;28;20044;-64
2021/12/07 08:25:54;;;;;;;33.83;5.00;;;;;;;14.48;85.81;99989.38;5074811;28;20035;-64
2021/12/07 08:28:22;;;;;;;24.55;3.80;;;;;;;14.50;85.61;99997.31;5078044;28;20543;-64
2021/12/07 08:30:51;;;;;;;29.48;3.70;;;;;;;14.64;85.67;100004.19;5066191;28;20045;-65
2021/12/07 08:33:19;;;;;;;28.80;3.58;;;;;;;14.90;87.30;100025.09;5066264;28;20635;-65
2021/12/07 08:35:48;;;;;;;30.02;3.67;;;;;;;14.96;87.63;100011.75;5074657;28;20428;-65
2021/12/07 08:38:15;;;;;;;22.88;4.45;;;;;;;14.97;86.94;100015.25;5068746;28;20033;-65
2021/12/07 08:40:45;;;;;;;24.30;3.00;;;;;;;15.08;85.90;100008.00;5067969;28;20488;-65
2021/12/07 08:43:14;;;;;;;23.20;3.58;;;;;;;15.08;81.76;100018.66;5067864;28;20094;-65
2021/12/07 08:45:43;;;;;;;23.30;5.57;;;;;;;15.12;81.27;100010.59;5075086;28;20047;-65
2021/12/07 08:48:11;;;;;;;32.13;4.03;;;;;;;15.13;80.08;100016.78;5076551;28;20040;-65
2021/12/07 08:50:39;;;;;;;12.20;2.83;;;;;;;15.18;79.11;100012.28;5088466;28;20039;-66
2021/12/07 08:53:10;;;;;;;22.13;3.45;;;;;;;15.18;76.59;99992.78;5086525;28;20068;-66
2021/12/07 09:01:12;;;;;;;17.42;2.72;;;;;;;15.27;77.98;100017.47;5065218;28;20051;-65
2021/12/07 09:03:40;;;;;;;12.00;2.15;;;;;;;15.46;76.62;100007.41;5065995;28;20041;-65
2021/12/07 09:06:08;;;;;;;19.88;2.58;;;;;;;15.61;75.99;100016.97;5062780;28;20033;-66
2021/12/07 09:08:37;;;;;;;15.57;3.20;;;;;;;15.79;76.99;100020.19;5056076;28;20086;-66
2021/12/07 09:11:05;;;;;;;16.95;2.08;;;;;;;15.96;76.61;100017.19;5066700;28;20052;-65
2021/12/07 09:13:35;;;;;;;16.05;2.40;;;;;;;16.13;76.41;100023.09;5048180;28;20115;-66
2021/12/07 09:16:03;;;;;;;25.90;2.42;;;;;;;16.31;79.28;100028.06;5065551;28;20119;-66
2021/12/07 09:18:31;;;;;;;6.80;1.40;;;;;;;16.44;77.83;100020.72;5063632;28;20040;-66
2021/12/07 09:21:00;;;;;;;15.13;2.13;;;;;;;16.48;75.60;100034.81;5089537;28;20040;-66
2021/12/07 09:23:29;;;;;;;15.05;2.38;;;;;;;16.49;74.05;100029.47;5068525;28;20391;-66
2021/12/07 09:25:57;;;;;;;10.98;1.50;;;;;;;16.58;71.46;100029.31;5071046;28;20048;-67
2021/12/07 09:28:25;;;;;;;21.55;2.85;;;;;;;16.77;74.72;100016.50;5088074;28;20097;-66
2021/12/07 09:30:54;;;;;;;8.10;1.75;;;;;;;16.70;67.62;100010.41;5086818;28;20093;-66
2021/12/07 09:33:25;;;;;;;15.65;2.00;;;;;;;16.47;68.22;100022.44;5067608;28;20048;-67
2021/12/07 09:35:54;;;;;;;12.88;1.88;;;;;;;16.32;67.77;100023.63;5056729;28;20434;-66
2021/12/07 09:38:23;;;;;;;14.18;2.50;;;;;;;16.15;68.56;100009.72;5054450;28;20048;-66
2021/12/07 09:40:52;;;;;;;14.38;2.13;;;;;;;16.21;71.44;100002.50;5051788;28;20095;-66
2021/12/07 09:43:20;;;;;;;8.90;1.55;;;;;;;16.49;70.43;100013.50;5048401;28;20544;-66
2021/12/07 09:45:49;;;;;;;19.83;2.42;;;;;;;16.73;69.93;100012.16;5046604;28;20408;-66
2021/12/07 09:48:18;;;;;;;12.00;2.60;;;;;;;16.91;69.56;99992.19;5044814;28;20045;-66
2021/12/07 09:50:51;;;;;;;15.05;3.22;;;;;;;17.12;72.61;99994.38;5075240;28;20687;-66
2021/12/07 09:53:19;;;;;;;16.33;1.88;;;;;;;17.25;69.91;100005.63;5048597;28;20393;-65
2021/12/07 09:55:49;;;;;;;14.95;2.38;;;;;;;17.03;69.29;99999.91;5044793;28;20099;-66
2021/12/07 09:58:19;;;;;;;13.50;2.53;;;;;;;16.73;70.02;100012.16;5041436;28;20044;-66
2021/12/07 10:00:48;;;;;;;12.55;1.70;;;;;;;16.45;69.08;100019.81;5040489;28;20164;-66
2021/12/07 10:03:20;;;;;;;15.25;2.63;;;;;;;16.21;68.47;100009.66;5059295;28;20216;-66
2021/12/07 10:05:47;;;;;;;16.60;1.88;;;;;;;16.08;68.73;100016.97;5037169;28;20063;-66
2021/12/07 10:08:15;;;;;;;19.80;3.85;;;;;;;16.12;68.75;100018.69;5042260;28;20083;-67
2021/12/07 10:10:46;;;;;;;10.57;2.20;;;;;;;16.16;69.23;100023.03;5043461;28;20045;-67
2021/12/07 10:13:16;;;;;;;15.82;2.15;;;;;;;16.19;68.48;100038.09;5045158;28;20041;-67
2021/12/07 10:15:45;;;;;;;11.25;1.65;;;;;;;16.19;69.33;100033.63;5060227;28;20051;-66
2021/12/07 10:18:16;;;;;;;9.98;2.13;;;;;;;16.24;68.53;100014.91;5048290;28;20126;-66
2021/12/07 10:20:48;;;;;;;6.45;1.00;;;;;;;16.13;67.50;100000.91;5049504;28;20091;-67
2021/12/07 10:23:33;;;;;;;7.20;0.98;;;;;;;15.99;67.22;99981.66;5051406;28;20048;-68
2021/12/07 10:26:08;;;;;;;6.93;0.93;;;;;;;15.88;67.36;99985.38;5057091;28;20530;-68
2021/12/07 10:28:38;;;;;;;6.03;0.63;;;;;;;15.68;66.31;99978.69;5054363;28;20095;-69
2021/12/07 10:31:21;;;;;;;8.13;2.83;;;;;;;15.58;69.16;99980.63;5051359;28;20183;-68
2021/12/07 10:33:54;;;;;;;9.23;5.78;;;;;;;15.50;69.42;99982.50;5049070;28;20047;-67
2021/12/07 10:36:26;;;;;;;20.38;10.98;;;;;;;15.46;70.42;99967.50;5047942;28;20040;-67
2021/12/07 10:38:58;;;;;;;11.93;5.72;;;;;;;15.44;70.78;99953.34;5039717;28;20175;-68
2021/12/07 10:41:26;;;;;;;12.85;5.38;;;;;;;15.33;70.22;99942.91;5037973;28;20115;-67
2021/12/07 10:43:59;;;;;;;7.00;2.95;;;;;;;15.33;70.57;99936.72;5050711;28;20497;-67
2021/12/07 10:46:45;;;;;;;9.30;3.28;;;;;;;15.38;70.77;99934.84;5045547;28;20048;-68
2021/12/07 10:49:41;;;;;;;7.35;0.90;;;;;;;15.35;70.01;99924.28;5041835;28;20040;-68
2021/12/07 10:52:26;;;;;;;6.53;1.08;;;;;;;15.16;69.36;99919.25;5037840;28;20086;-67
2021/12/07 10:55:07;;;;;;;2.08;0.68;;;;;;;15.06;69.79;99896.38;5042704;28;20037;-67
2021/12/07 10:57:39;;;;;;;6.70;0.98;;;;;;;14.99;68.94;99876.13;5041361;28;20037;-67
2021/12/07 11:00:22;;;;;;;4.38;0.77;;;;;;;14.94;68.85;99863.81;5062124;28;20047;-68
2021/12/07 11:02:54;;;;;;;4.47;0.90;;;;;;;14.88;68.47;99846.22;5029598;28;20048;-68
2021/12/07 11:05:25;;;;;;;5.63;0.90;;;;;;;14.94;68.93;99840.78;5046584;28;20282;-67
2021/12/07 11:07:56;;;;;;;5.18;0.57;;;;;;;14.90;68.41;99831.09;5032313;28;20077;-68
2021/12/07 11:10:30;;;;;;;4.95;1.00;;;;;;;15.01;68.87;99866.34;5047415;28;20049;-68
2021/12/07 11:13:05;;;;;;;5.13;1.30;;;;;;;15.22;68.56;99878.41;5031077;28;20038;-67
2021/12/07 11:15:35;;;;;;;7.15;0.70;;;;;;;15.57;68.42;99861.81;5047917;28;20068;-67
2021/12/07 11:18:07;;;;;;;3.15;0.70;;;;;;;15.87;68.72;99871.88;5055168;28;20442;-66
2021/12/07 11:20:35;;;;;;;7.93;1.48;;;;;;;16.05;67.27;99869.72;5051999;28;20137;-67
2021/12/07 11:23:09;;;;;;;6.20;1.60;;;;;;;16.06;67.93;99877.69;5048339;28;20493;-67
2021/12/07 11:29:39;;;;;;;8.63;2.90;;;;;;;16.11;69.20;99858.94;5034370;28;20037;-67
2021/12/07 11:31:31;;;;;;;5.93;3.88;;;;;;;16.12;67.39;99858.91;5042462;28;20037;-66
2021/12/07 11:34:08;;;;;;;6.00;1.50;;;;;;;16.05;66.72;99867.06;5049725;28;20044;-67
2021/12/07 11:36:37;;;;;;;9.85;3.17;;;;;;;15.90;64.84;99877.13;5048781;28;20095;-66
2021/12/07 11:39:22;;;;;;;7.90;3.17;;;;;;;15.76;64.87;99886.28;5049926;28;20076;-67
2021/12/07 11:41:54;;;;;;;6.43;1.73;;;;;;;15.73;65.77;99900.53;5039422;28;20048;-67
2021/12/07 11:44:23;;;;;;;4.18;1.40;;;;;;;15.84;67.66;99900.31;5045323;28;20592;-66
2021/12/07 11:46:52;;;;;;;2.83;0.63;;;;;;;15.90;66.63;99902.84;5035726;28;20041;-66
2021/12/07 11:49:21;;;;;;;1.23;0.30;;;;;;;15.95;67.79;99904.50;5049727;28;20148;-66
2021/12/07 11:51:51;;;;;;;3.58;0.93;;;;;;;15.94;68.01;99905.44;5053410;28;20555;-66
2021/12/07 11:54:23;;;;;;;4.45;2.42;;;;;;;16.01;68.70;99900.00;5047727;28;20068;-66
2021/12/07 11:56:52;;;;;;;8.77;6.00;;;;;;;16.03;69.43;99908.81;5055429;28;20496;-66
2021/12/07 11:59:19;;;;;;;15.15;10.90;;;;;;;16.09;70.00;99914.00;5047864;28;20041;-66
2021/12/07 12:01:49;;;;;;;29.60;22.90;;;;;;;16.17;70.25;99917.41;5048309;28;20087;-66
2021/12/07 12:04:19;;;;;;;23.92;17.40;;;;;;;16.18;70.39;99908.50;5058284;28;20040;-67
2021/12/07 12:06:48;;;;;;;22.70;17.92;;;;;;;16.09;70.37;99914.00;5050157;28;20116;-67
2021/12/07 12:09:17;;;;;;;26.92;20.95;;;;;;;15.99;70.26;99913.31;5047990;28;20178;-67
2021/12/07 12:11:55;;;;;;;21.70;17.20;;;;;;;15.94;70.19;99913.44;5049359;28;20053;-67
2021/12/07 12:14:40;;;;;;;8.18;4.38;;;;;;;15.87;70.01;99903.81;5050516;28;20045;-66
2021/12/07 12:17:13;;;;;;;5.45;2.05;;;;;;;15.78;70.07;99897.78;5068733;28;20035;-67
2021/12/07 12:19:50;;;;;;;3.55;1.60;;;;;;;15.77;70.59;99893.34;5052638;28;20041;-67
2021/12/07 12:22:23;;;;;;;5.47;3.33;;;;;;;15.73;70.25;99889.00;5049201;28;20044;-66
2021/12/07 12:24:54;;;;;;;7.63;5.57;;;;;;;15.62;69.18;99913.16;5066810;28;20543;-66
2021/12/07 12:27:27;;;;;;;6.82;3.97;;;;;;;15.55;68.58;99924.84;5068391;28;20028;-66
2021/12/07 12:29:57;;;;;;;3.17;1.10;;;;;;;15.47;67.99;99938.22;5067471;28;20043;-67
2021/12/07 12:32:30;;;;;;;3.60;2.25;;;;;;;15.41;67.90;99951.63;5048293;28;20401;-66
2021/12/07 12:34:59;;;;;;;14.50;9.25;;;;;;;15.33;68.31;99948.22;5073164;28;20037;-66
2021/12/07 12:37:30;;;;;;;25.42;21.63;;;;;;;15.30;69.11;99950.91;5027731;28;20838;-66
2021/12/07 12:40:00;;;;;;;13.82;9.48;;;;;;;15.16;69.70;99952.97;5028550;28;20053;-67
2021/12/07 12:42:36;;;;;;;10.32;5.30;;;;;;;15.08;70.39;99942.44;5060755;28;20064;-66
2021/12/07 12:45:17;;;;;;;6.97;1.85;;;;;;;15.02;70.74;99937.22;5038868;28;20037;-66
2021/12/07 12:47:45;;;;;;;5.30;0.57;;;;;;;14.95;70.55;99930.25;5045827;28;20064;-66
2021/12/07 12:50:21;;;;;;;3.22;0.40;;;;;;;14.92;70.42;99924.97;5055178;28;20102;-66
2021/12/07 12:52:52;;;;;;;4.90;0.60;;;;;;;14.89;70.24;99921.50;5046422;28;20083;-66
2021/12/07 12:55:33;;;;;;;4.25;0.65;;;;;;;14.87;70.03;99928.59;5050082;28;20542;-66
2021/12/07 12:58:04;;;;;;;4.32;0.60;;;;;;;14.88;70.05;99923.28;5050776;28;20048;-66
2021/12/07 13:01:05;;;;;;;4.45;0.73;;;;;;;14.90;68.61;99916.13;5048146;28;20065;-66
2021/12/07 13:03:51;;;;;;;1.08;0.22;;;;;;;14.76;67.95;99918.16;5058952;28;20047;-66
2021/12/07 13:06:21;;;;;;;1.02;0.20;;;;;;;14.64;67.72;99928.94;5067020;28;20320;-67
2021/12/07 13:08:57;;;;;;;1.80;0.32;;;;;;;14.68;68.22;99939.50;5060882;28;20566;-66
2021/12/07 13:11:38;;;;;;;3.80;1.90;;;;;;;14.68;67.69;99951.91;5059252;28;20049;-67
2021/12/07 13:14:13;;;;;;;12.23;9.65;;;;;;;14.67;67.63;99950.16;5061189;28;20054;-67
2021/12/07 13:16:49;;;;;;;40.70;29.80;;;;;;;14.63;68.29;99964.38;5085335;28;20037;-68
2021/12/07 13:19:17;;;;;;;44.15;35.38;;;;;;;14.60;68.97;99967.94;5078217;28;20404;-66
2021/12/07 13:21:46;;;;;;;51.13;40.67;;;;;;;14.62;69.31;99962.63;5066137;28;20086;-67
2021/12/07 13:24:16;;;;;;;53.67;42.35;;;;;;;14.60;69.51;99970.59;5058879;28;20040;-67
2021/12/07 13:26:51;;;;;;;27.30;21.45;;;;;;;14.52;69.75;99980.44;5051885;28;20045;-66
2021/12/07 13:29:22;;;;;;;18.60;13.07;;;;;;;14.39;69.75;100001.84;5060983;28;20127;-67
2021/12/07 13:31:52;;;;;;;9.45;2.83;;;;;;;14.33;70.00;100011.63;5068914;28;20056;-67
2021/12/07 13:34:27;;;;;;;10.15;3.25;;;;;;;14.28;70.52;100008.16;5060513;28;20053;-67
2021/12/07 13:36:58;;;;;;;8.30;3.70;;;;;;;14.31;70.97;100005.44;5067181;28;20090;-68
2021/12/07 13:39:40;;;;;;;12.90;7.55;;;;;;;14.33;71.10;100011.63;5061469;28;20518;-67
2021/12/07 13:42:12;;;;;;;11.88;6.43;;;;;;;14.30;70.93;100002.84;5067764;28;20119;-67
2021/12/07 13:44:44;;;;;;;13.75;3.42;;;;;;;14.24;71.56;99995.78;5081949;28;20044;-68
2021/12/07 13:47:14;;;;;;;21.33;10.75;;;;;;;14.20;72.10;100001.16;5048966;28;20404;-67
2021/12/07 13:49:44;;;;;;;17.80;10.95;;;;;;;14.14;72.80;99995.94;5069139;28;20123;-67
2021/12/07 13:52:15;;;;;;;8.43;1.42;;;;;;;13.88;74.34;100005.06;5065478;28;20048;-67